»·PEaware :: WAT169 KDEN-KLAS

WAT169 :: KDEN-KLAS

FLIGHT INFORMATION

Flight Status: Arrived
Operator:
Walker Air Transport
More flights by this operator :: More flights under this callsign
Pilot: Marty P. (27464)
Aircraft: Boeing 747-8
(B748)
More flights by this aircraft type
Origin: KDEN Denver Intl
United States
Destination: KLAS McCarran Intl
United States
More flights between these airports :: More routes between these airports
Route: +CONNR7 WERNR ZAKRY GGAPP SITEE4
File this flight plan on PilotEdge
Remarks:
Altitude:
(Current/Filed)
38,000ft
Speed:
(Current/Filed)
480kts
Departed: 11-Sep-20 10:00 PM
Arrived: 11-Sep-20 11:24 PM
Distance/Time
Traveled:
545nm/1:24
Distance/Time
To Go:
Arrived

Flight Plot

Page will automatically refresh every two minutes.

Flight plan parsing failed; only flown route is shown


Map Options




Map Legend


Flown Route
Filed Route
Departure Airport
Arrival Airport
Navaid (VOR, NDB)
Fix

Horizontal Profiles

Position Reports

Time Latitude Longitude Heading Altitude Ground
Speed
11-Sep-20 20:39 39.858055 -104.675449 0 5450ft 0kts
11-Sep-20 20:40 39.858055 -104.675449 0 5450ft 0kts
11-Sep-20 20:41 39.858055 -104.675449 0 5450ft 0kts
11-Sep-20 20:42 39.858055 -104.675449 0 5450ft 0kts
11-Sep-20 20:43 39.858055 -104.675449 0 5450ft 0kts
11-Sep-20 20:44 39.858055 -104.675449 0 5450ft 0kts
11-Sep-20 20:45 39.858055 -104.675449 0 5450ft 0kts
11-Sep-20 20:46 39.858055 -104.675449 0 5450ft 0kts
11-Sep-20 20:47 39.858055 -104.675449 0 5450ft 0kts
11-Sep-20 20:48 39.858055 -104.675449 0 5450ft 0kts
11-Sep-20 20:49 39.858055 -104.675449 0 5450ft 0kts
11-Sep-20 20:50 39.858055 -104.675449 0 5450ft 0kts
11-Sep-20 20:51 39.858055 -104.675449 0 5450ft 0kts
11-Sep-20 20:52 39.858055 -104.675449 0 5450ft 0kts
11-Sep-20 20:53 39.858055 -104.675449 0 5450ft 0kts
11-Sep-20 20:54 39.858055 -104.675449 0 5449ft 0kts
11-Sep-20 20:55 39.858055 -104.675449 0 5449ft 0kts
11-Sep-20 20:56 39.858055 -104.675449 0 5449ft 0kts
11-Sep-20 20:57 39.858055 -104.675449 0 5449ft 0kts
11-Sep-20 20:58 39.858055 -104.675449 0 5449ft 0kts
11-Sep-20 20:59 39.858055 -104.675449 0 5449ft 0kts
11-Sep-20 21:00 39.858055 -104.675449 0 5449ft 0kts
11-Sep-20 21:01 39.858055 -104.675449 0 5449ft 0kts
11-Sep-20 21:02 39.858055 -104.675449 0 5449ft 0kts
11-Sep-20 21:03 39.858055 -104.675449 0 5449ft 0kts
11-Sep-20 21:04 39.858055 -104.675449 0 5449ft 0kts
11-Sep-20 21:05 39.858055 -104.675449 0 5449ft 0kts
11-Sep-20 21:06 39.858055 -104.675449 0 5449ft 0kts
11-Sep-20 21:07 39.858055 -104.675449 0 5449ft 0kts
11-Sep-20 21:08 39.858055 -104.675449 0 5449ft 0kts
11-Sep-20 21:09 39.858055 -104.675449 0 5449ft 0kts
11-Sep-20 21:10 39.858055 -104.675449 0 5449ft 0kts
11-Sep-20 21:11 39.858055 -104.675449 0 5449ft 0kts
11-Sep-20 21:12 39.858055 -104.675449 0 5449ft 0kts
11-Sep-20 21:13 39.858055 -104.675449 0 5449ft 0kts
11-Sep-20 21:14 39.858055 -104.675449 0 5449ft 0kts
11-Sep-20 21:15 39.858055 -104.675449 0 5449ft 0kts
11-Sep-20 21:16 39.858055 -104.675449 0 5449ft 0kts
11-Sep-20 21:17 39.858055 -104.675449 0 5449ft 0kts
11-Sep-20 21:18 39.858055 -104.675449 0 5449ft 0kts
11-Sep-20 21:19 39.858055 -104.675449 0 5449ft 0kts
11-Sep-20 21:20 39.858055 -104.675449 0 5449ft 0kts
11-Sep-20 21:21 39.858055 -104.675449 0 5449ft 0kts
11-Sep-20 21:22 39.858055 -104.675449 0 5449ft 0kts
11-Sep-20 21:23 39.858055 -104.675449 0 5449ft 0kts
11-Sep-20 21:24 39.858055 -104.675449 0 5449ft 0kts
11-Sep-20 21:25 39.858055 -104.675449 0 5449ft 0kts
11-Sep-20 21:26 39.858055 -104.675449 0 5449ft 0kts
11-Sep-20 21:27 39.858055 -104.675449 0 5449ft 0kts
11-Sep-20 21:28 39.858055 -104.675449 0 5449ft 0kts
11-Sep-20 21:29 39.858055 -104.675449 0 5449ft 0kts
11-Sep-20 21:30 39.858055 -104.675449 0 5449ft 0kts
11-Sep-20 21:31 39.858055 -104.675449 0 5449ft 0kts
11-Sep-20 21:32 39.858055 -104.675449 0 5449ft 0kts
11-Sep-20 21:33 39.858055 -104.675449 0 5449ft 0kts
11-Sep-20 21:34 39.858055 -104.675449 0 5449ft 0kts
11-Sep-20 21:35 39.858055 -104.675449 0 5449ft 0kts
11-Sep-20 21:36 39.858055 -104.675449 0 5449ft 0kts
11-Sep-20 21:37 39.858026 -104.675449 0 5449ft 0kts
11-Sep-20 21:38 39.857949 -104.675449 0 5449ft 0kts
11-Sep-20 21:39 39.857468 -104.675457 0 5449ft 2kts
11-Sep-20 21:40 39.856935 -104.675394 329 5449ft 2kts
11-Sep-20 21:41 39.856649 -104.674805 269 5449ft 0kts
11-Sep-20 21:42 39.856673 -104.677167 270 5449ft 7kts
11-Sep-20 21:43 39.856700 -104.679985 270 5449ft 7kts
11-Sep-20 21:44 39.856706 -104.680656 270 5449ft 0kts
11-Sep-20 21:45 39.856706 -104.680666 270 5449ft 0kts
11-Sep-20 21:46 39.856706 -104.680666 270 5449ft 0kts
11-Sep-20 21:47 39.856706 -104.680666 270 5449ft 0kts
11-Sep-20 21:48 39.856706 -104.680666 270 5449ft 0kts
11-Sep-20 21:49 39.856706 -104.680666 270 5449ft 0kts
11-Sep-20 21:50 39.856706 -104.680666 270 5449ft 0kts
11-Sep-20 21:51 39.856706 -104.680666 270 5449ft 0kts
11-Sep-20 21:53 39.856707 -104.680798 270 5449ft 1kts
11-Sep-20 21:54 39.856709 -104.683766 224 5449ft 13kts
11-Sep-20 21:55 39.853150 -104.684015 179 5449ft 1kts
11-Sep-20 21:56 39.849831 -104.684043 178 5449ft 23kts
11-Sep-20 21:57 39.842737 -104.684150 180 5449ft 12kts
11-Sep-20 21:58 39.841965 -104.684150 179 5449ft 0kts
11-Sep-20 21:59 39.840685 -104.687901 269 5449ft 27kts
11-Sep-20 22:00 39.841469 -104.736146 269 6519ft 250kts
11-Sep-20 22:01 39.843308 -104.814578 270 10936ft 213kts
11-Sep-20 22:02 39.838189 -104.903387 264 12721ft 287kts
11-Sep-20 22:03 39.814858 -105.019146 258 13977ft 377kts
11-Sep-20 22:04 39.787610 -105.156088 260 17060ft 403kts
11-Sep-20 22:05 39.760761 -105.299876 259 19958ft 421kts
11-Sep-20 22:06 39.730018 -105.449021 258 22512ft 438kts
11-Sep-20 22:07 39.698838 -105.603460 258 24932ft 452kts
11-Sep-20 22:08 39.670173 -105.761108 261 27218ft 463kts
11-Sep-20 22:09 39.648485 -105.922811 262 29325ft 473kts
11-Sep-20 22:09 39.630594 -106.060995 262 31015ft 482kts
11-Sep-20 22:11 39.604324 -106.250906 261 34037ft 470kts
11-Sep-20 22:12 39.582368 -106.407116 262 35916ft 464kts
11-Sep-20 22:12 39.564054 -106.537690 262 37084ft 464kts
11-Sep-20 22:14 39.536489 -106.707303 253 38284ft 467kts
11-Sep-20 22:14 39.503003 -106.811762 248 38340ft 465kts
11-Sep-20 22:15 39.461815 -106.930497 249 38344ft 468kts
11-Sep-20 22:16 39.422840 -107.054926 251 38357ft 468kts
11-Sep-20 22:17 39.384262 -107.183615 252 38365ft 467kts
11-Sep-20 22:18 39.342216 -107.305757 247 38369ft 469kts
11-Sep-20 22:19 39.296366 -107.430107 248 38319ft 469kts
11-Sep-20 22:20 39.253346 -107.552290 249 38282ft 477kts
11-Sep-20 22:21 39.205009 -107.692380 248 38288ft 498kts
11-Sep-20 22:22 39.155106 -107.835995 248 38279ft 492kts
11-Sep-20 22:23 39.101779 -107.987165 248 38283ft 492kts
11-Sep-20 22:24 39.054789 -108.120003 248 38265ft 493kts
11-Sep-20 22:25 39.004657 -108.261311 248 38438ft 492kts
11-Sep-20 22:26 38.954512 -108.401448 247 39680ft 489kts
11-Sep-20 22:27 38.904619 -108.540732 247 40247ft 492kts
11-Sep-20 22:28 38.853406 -108.680732 246 40238ft 495kts
11-Sep-20 22:29 38.802084 -108.821260 247 40237ft 495kts
11-Sep-20 22:30 38.750003 -108.964553 247 40237ft 496kts
11-Sep-20 22:31 38.692593 -109.121339 247 40204ft 496kts
11-Sep-20 22:32 38.628836 -109.294556 247 40181ft 496kts
11-Sep-20 22:33 38.579637 -109.427104 240 35520ft 311kts
11-Sep-20 22:34 38.514309 -109.487712 222 31086ft 350kts
11-Sep-20 22:35 38.474377 -109.581099 266 32705ft 308kts
11-Sep-20 22:36 38.459482 -109.677398 263 34029ft 287kts
11-Sep-20 22:37 38.442523 -109.776662 254 34245ft 324kts
11-Sep-20 22:38 38.405744 -109.892420 247 35159ft 357kts
11-Sep-20 22:39 38.361719 -110.009794 246 35767ft 399kts
11-Sep-20 22:40 38.312459 -110.139884 246 36215ft 450kts
11-Sep-20 22:41 38.256269 -110.288533 246 36223ft 506kts
11-Sep-20 22:42 38.199542 -110.436462 246 36196ft 492kts
11-Sep-20 22:43 38.142843 -110.583594 246 36219ft 503kts
11-Sep-20 22:44 38.087589 -110.726860 245 36221ft 504kts
11-Sep-20 22:45 38.030890 -110.873770 245 36222ft 505kts
11-Sep-20 22:46 37.965701 -111.041025 245 36220ft 505kts
11-Sep-20 22:47 37.907540 -111.189969 245 36254ft 505kts
11-Sep-20 22:48 37.843133 -111.350665 245 36358ft 506kts
11-Sep-20 22:49 37.782568 -111.501916 245 36380ft 506kts
11-Sep-20 22:50 37.722255 -111.654179 245 36381ft 506kts
11-Sep-20 22:51 37.665711 -111.796998 245 36384ft 507kts
11-Sep-20 22:52 37.609125 -111.938624 245 36353ft 472kts
11-Sep-20 22:53 37.555001 -112.074526 245 36383ft 475kts
11-Sep-20 22:54 37.487011 -112.231462 239 36393ft 477kts
11-Sep-20 22:55 37.418939 -112.364513 239 36391ft 477kts
11-Sep-20 22:56 37.353636 -112.499087 241 36104ft 483kts
11-Sep-20 22:57 37.290458 -112.631251 240 34465ft 478kts
11-Sep-20 22:58 37.221448 -112.775018 240 32731ft 482kts
11-Sep-20 22:59 37.157050 -112.906265 236 31114ft 487kts
11-Sep-20 23:00 37.070412 -113.035010 229 29347ft 497kts
11-Sep-20 23:01 37.010982 -113.181577 250 27531ft 480kts
11-Sep-20 23:02 36.954536 -113.327402 240 25777ft 472kts
11-Sep-20 23:03 36.929870 -113.376648 238 25151ft 469kts
11-Sep-20 23:04 36.859827 -113.510807 238 23407ft 461kts
11-Sep-20 23:05 36.792408 -113.644307 239 21683ft 450kts
11-Sep-20 23:06 36.728014 -113.775652 239 20021ft 440kts
11-Sep-20 23:07 36.664520 -113.903482 238 18383ft 429kts
11-Sep-20 23:08 36.602032 -114.028808 239 16747ft 421kts
11-Sep-20 23:09 36.526946 -114.138420 224 15405ft 414kts
11-Sep-20 23:10 36.445844 -114.236235 226 14088ft 386kts
11-Sep-20 23:11 36.380918 -114.321462 227 12805ft 295kts
11-Sep-20 23:12 36.324119 -114.396882 227 11924ft 293kts
11-Sep-20 23:13 36.265564 -114.474187 227 11020ft 297kts
11-Sep-20 23:14 36.208755 -114.549041 227 10035ft 297kts
11-Sep-20 23:15 36.152499 -114.623051 227 9188ft 293kts
11-Sep-20 23:16 36.099506 -114.693024 226 8355ft 273kts
11-Sep-20 23:17 36.073025 -114.773965 267 7967ft 233kts
11-Sep-20 23:18 36.073134 -114.853967 270 6676ft 235kts
11-Sep-20 23:19 36.073461 -114.927815 270 5476ft 187kts
11-Sep-20 23:20 36.073603 -114.985680 270 4454ft 163kts
11-Sep-20 23:21 36.073663 -115.041040 269 3570ft 160kts
11-Sep-20 23:22 36.073653 -115.095777 269 2706ft 159kts
11-Sep-20 23:23 36.073630 -115.141833 272 2196ft 16kts
11-Sep-20 23:24 36.073928 -115.143948 286 2196ft 0kts
11-Sep-20 23:25 36.075055 -115.146290 337 2196ft 8kts
11-Sep-20 23:26 36.078629 -115.147279 346 2196ft 12kts
11-Sep-20 23:27 36.080875 -115.148018 63 2196ft 5kts
11-Sep-20 23:28 36.080969 -115.147770 64 2196ft 0kts
11-Sep-20 23:29 36.080969 -115.147770 64 2196ft 0kts
11-Sep-20 23:30 36.080969 -115.147770 64 2196ft 0kts
11-Sep-20 23:31 36.080969 -115.147770 64 2196ft 0kts
11-Sep-20 23:32 36.080969 -115.147770 64 2196ft 0kts
11-Sep-20 23:33 36.080969 -115.147770 64 2196ft 0kts
11-Sep-20 23:34 36.080969 -115.147770 64 2196ft 0kts
11-Sep-20 23:35 36.080969 -115.147770 64 2196ft 0kts
11-Sep-20 23:36 36.080969 -115.147770 64 2196ft 0kts

Navigation Log

Ident Type
Flight plan parsing failed, navigation log unavailable